Pindamonhangaba, Brazil
Current Conditions -  °F | °C
As of 4:00 PM on Thursday 27 Nov 2014 (Local Time) from SBGW Reporting Station
Broken Clouds Broken Clouds  
Wind Chill: 79°   Ceiling: 2000
Heat Index: 81°   Visibility: 4mi
Dew Point: 70°   Wind: 6mph
Humidity: 74%   Direction: 260°W
Pressure: 29.88"   Gusts: NA
Location:  22.92°S, 45.47°W
Report Text: SBGW 271800Z 26005KT 7000 BKN020 FEW025TCU BKN080 26/21 Q1012
Loading
Personal Weather Stations






























Interactive Weather Map New forecast layout! Learn more

10-Day Weather Forecast

Advertisements
Track Severe Weather on mobile